createdAt,value
2023-01-20T00:00:45.526Z,100.00
2023-01-20T00:01:48.423Z,100.00
2023-01-20T00:02:51.433Z,100.00
2023-01-20T00:03:55.312Z,100.00
2023-01-20T00:04:57.074Z,100.00
2023-01-20T00:05:59.603Z,100.00
2023-01-20T00:07:01.198Z,100.00
2023-01-20T00:08:03.751Z,100.00
2023-01-20T00:09:05.709Z,100.00
2023-01-20T00:10:09.653Z,100.00
2023-01-20T00:11:13.094Z,100.00
2023-01-20T00:12:15.592Z,100.00
2023-01-20T00:13:17.210Z,100.00
2023-01-20T00:14:23.666Z,100.00
2023-01-20T00:15:25.470Z,100.00
2023-01-20T00:16:29.223Z,100.00
2023-01-20T00:17:33.241Z,100.00
2023-01-20T00:18:37.928Z,100.00
2023-01-20T00:19:39.522Z,100.00
2023-01-20T00:20:42.288Z,100.00
2023-01-20T00:21:44.283Z,100.00
2023-01-20T00:22:46.977Z,100.00
2023-01-20T00:23:49.247Z,100.00
2023-01-20T00:24:51.720Z,100.00
2023-01-20T00:25:53.229Z,99.61
2023-01-20T00:26:56.079Z,98.97
2023-01-20T00:27:57.812Z,98.83
2023-01-20T00:29:00.345Z,97.89
2023-01-20T00:30:02.030Z,97.51
2023-01-20T00:31:16.384Z,97.31
2023-01-20T00:32:18.924Z,97.23
2023-01-20T00:33:20.471Z,95.94
2023-01-20T00:34:24.378Z,95.91
2023-01-20T00:35:27.144Z,95.88
2023-01-20T00:36:32.398Z,96.24
2023-01-20T00:37:34.032Z,95.50
2023-01-20T00:38:36.667Z,94.55
2023-01-20T00:39:39.295Z,94.48
2023-01-20T00:40:40.995Z,94.53
2023-01-20T00:41:43.487Z,94.18
2023-01-20T00:42:45.247Z,96.34
2023-01-20T00:43:47.974Z,95.59
2023-01-20T00:44:49.523Z,94.74
2023-01-20T00:45:52.141Z,93.51
2023-01-20T00:46:54.754Z,92.86
2023-01-20T00:47:56.370Z,92.88
2023-01-20T00:48:59.097Z,93.75
2023-01-20T00:50:02.056Z,94.68
2023-01-20T00:51:06.020Z,95.19
2023-01-20T00:52:08.569Z,94.61
2023-01-20T00:53:10.148Z,94.44
2023-01-20T00:54:12.674Z,93.68
2023-01-20T00:55:14.795Z,93.11
2023-01-20T00:56:17.537Z,91.75
2023-01-20T00:57:19.090Z,92.47
2023-01-20T00:58:22.532Z,95.21
2023-01-20T00:59:25.251Z,97.85
2023-01-20T01:00:27.811Z,97.65
2023-01-20T01:01:29.615Z,96.57
2023-01-20T01:02:32.597Z,96.33
2023-01-20T01:03:34.496Z,96.66
2023-01-20T01:04:37.043Z,96.71
2023-01-20T01:05:40.121Z,96.19
2023-01-20T01:06:42.706Z,97.17
2023-01-20T01:07:44.341Z,96.99
2023-01-20T01:08:47.018Z,96.08
2023-01-20T01:09:48.610Z,96.19
2023-01-20T01:10:51.143Z,96.01
2023-01-20T01:11:53.020Z,96.86
2023-01-20T01:12:55.714Z,96.54
2023-01-20T01:13:58.247Z,95.72
2023-01-20T01:14:59.786Z,94.61
2023-01-20T01:16:02.436Z,93.78
2023-01-20T01:17:04.996Z,93.48
2023-01-20T01:18:06.703Z,92.74
2023-01-20T01:19:09.713Z,91.82
2023-01-20T01:20:12.437Z,91.11
2023-01-20T01:21:18.169Z,90.96
2023-01-20T01:22:19.842Z,90.38
2023-01-20T01:23:25.314Z,90.06
2023-01-20T01:24:26.984Z,89.37
2023-01-20T01:25:29.458Z,90.85
2023-01-20T01:26:31.064Z,91.35
2023-01-20T01:27:35.682Z,92.13
2023-01-20T01:28:37.268Z,91.46
2023-01-20T01:29:40.287Z,90.85
2023-01-20T01:30:42.046Z,90.54
2023-01-20T01:31:44.706Z,91.12
2023-01-20T01:32:47.242Z,92.15
2023-01-20T01:33:50.151Z,92.35
2023-01-20T01:34:51.778Z,93.62
2023-01-20T01:35:57.388Z,93.63
2023-01-20T01:37:00.508Z,95.78
2023-01-20T01:38:03.215Z,97.33
2023-01-20T01:39:04.881Z,98.09
2023-01-20T01:40:11.915Z,97.26
2023-01-20T01:41:18.729Z,96.23
2023-01-20T01:42:25.302Z,94.86
2023-01-20T01:43:29.113Z,93.93
2023-01-20T01:44:39.249Z,92.84
2023-01-20T01:45:40.853Z,91.87
2023-01-20T01:46:44.191Z,90.90
2023-01-20T01:47:49.263Z,91.37
2023-01-20T01:48:52.036Z,91.74
2023-01-20T01:49:53.657Z,91.11
2023-01-20T01:50:59.614Z,90.54
2023-01-20T01:52:09.061Z,89.45
2023-01-20T01:53:11.939Z,89.17
2023-01-20T01:54:17.525Z,88.84
2023-01-20T01:55:23.378Z,88.36
2023-01-20T01:56:28.390Z,88.03
2023-01-20T01:57:31.953Z,88.15
2023-01-20T01:58:38.126Z,87.74
2023-01-20T01:59:39.759Z,86.99
2023-01-20T02:00:43.300Z,86.87
2023-01-20T02:01:49.577Z,88.70
2023-01-20T02:02:52.887Z,89.66
2023-01-20T02:03:58.844Z,89.73
2023-01-20T02:05:01.376Z,89.84
2023-01-20T02:06:04.100Z,89.32
2023-01-20T02:07:12.689Z,88.99
2023-01-20T02:08:14.318Z,88.41
2023-01-20T02:09:16.869Z,87.55
2023-01-20T02:10:18.989Z,87.09
2023-01-20T02:11:22.058Z,87.09
2023-01-20T02:12:23.896Z,86.93
2023-01-20T02:13:26.627Z,86.28
2023-01-20T02:14:33.525Z,86.94
2023-01-20T02:15:43.363Z,86.34
2023-01-20T02:17:00.774Z,87.54
2023-01-20T02:18:20.438Z,88.82
2023-01-20T02:19:54.019Z,88.84
2023-01-20T02:21:18.345Z,89.64
2023-01-20T02:22:36.616Z,91.26
2023-01-20T02:23:58.785Z,92.05
2023-01-20T02:25:26.666Z,90.70
2023-01-20T02:26:48.186Z,90.46
2023-01-20T02:28:28.156Z,89.78
2023-01-20T02:30:08.727Z,89.00
2023-01-20T02:31:37.977Z,88.32
2023-01-20T02:32:50.999Z,89.04
2023-01-20T02:34:00.794Z,90.37
2023-01-20T02:35:11.097Z,89.47
2023-01-20T02:36:19.833Z,88.30
2023-01-20T02:37:26.371Z,88.68
2023-01-20T02:38:36.195Z,89.77
2023-01-20T02:39:44.338Z,91.24
2023-01-20T02:40:56.690Z,91.91
2023-01-20T02:42:02.309Z,91.07
2023-01-20T02:43:11.673Z,90.07
2023-01-20T02:44:19.974Z,88.60
2023-01-20T02:45:26.456Z,88.49
2023-01-20T02:46:38.314Z,87.67
2023-01-20T02:47:51.937Z,88.09
2023-01-20T02:49:00.713Z,89.29
2023-01-20T02:50:11.244Z,89.70
2023-01-20T02:51:18.515Z,89.46
2023-01-20T02:52:24.005Z,88.67
2023-01-20T02:53:32.833Z,87.82
2023-01-20T02:54:38.464Z,87.38
2023-01-20T02:55:44.174Z,87.67
2023-01-20T02:56:49.280Z,88.37
2023-01-20T02:57:56.385Z,88.67
2023-01-20T02:59:02.590Z,89.19
2023-01-20T03:00:09.767Z,88.12
2023-01-20T03:01:18.630Z,88.36
2023-01-20T03:02:23.767Z,87.93
2023-01-20T03:03:30.612Z,88.24
2023-01-20T03:04:37.452Z,88.35
2023-01-20T03:05:45.165Z,88.20
2023-01-20T03:06:50.936Z,88.30
2023-01-20T03:07:53.956Z,88.42
2023-01-20T03:08:59.739Z,88.99
2023-01-20T03:10:06.179Z,88.80
2023-01-20T03:11:10.313Z,88.94
2023-01-20T03:12:18.541Z,89.29
2023-01-20T03:13:27.024Z,88.96
2023-01-20T03:14:28.869Z,88.79
2023-01-20T03:15:38.239Z,88.84
2023-01-20T03:16:43.758Z,88.32
2023-01-20T03:17:45.312Z,88.46
2023-01-20T03:18:49.732Z,88.25
2023-01-20T03:19:51.397Z,88.35
2023-01-20T03:20:53.921Z,87.85
2023-01-20T03:21:57.827Z,87.81
2023-01-20T03:23:00.374Z,88.01
2023-01-20T03:24:05.426Z,87.84
2023-01-20T03:25:08.790Z,88.11
2023-01-20T03:26:14.394Z,88.61
2023-01-20T03:27:16.151Z,89.49
2023-01-20T03:28:18.696Z,88.85
2023-01-20T03:29:21.456Z,89.28
2023-01-20T03:30:25.478Z,89.18
2023-01-20T03:31:31.856Z,87.84
2023-01-20T03:32:33.824Z,87.00
2023-01-20T03:33:36.722Z,88.41
2023-01-20T03:34:45.040Z,89.12
2023-01-20T03:35:48.021Z,89.64
2023-01-20T03:36:52.025Z,91.40
2023-01-20T03:37:54.755Z,91.25
2023-01-20T03:38:58.173Z,90.34
2023-01-20T03:40:01.763Z,89.43
2023-01-20T03:41:07.242Z,89.02
2023-01-20T03:42:14.122Z,88.49
2023-01-20T03:43:24.226Z,87.79
2023-01-20T03:44:34.768Z,87.76
2023-01-20T03:45:43.127Z,87.76
2023-01-20T03:46:51.771Z,87.23
2023-01-20T03:47:59.080Z,86.52
2023-01-20T03:49:08.582Z,86.95
2023-01-20T03:50:21.642Z,87.15
2023-01-20T03:51:29.068Z,86.76
2023-01-20T03:52:47.800Z,87.61
2023-01-20T03:53:56.648Z,88.20
2023-01-20T03:55:03.217Z,88.29
2023-01-20T03:56:13.151Z,88.17
2023-01-20T03:57:19.693Z,87.49
2023-01-20T03:58:29.837Z,87.15
2023-01-20T03:59:34.428Z,88.12
2023-01-20T04:00:40.756Z,90.22
2023-01-20T04:01:46.145Z,89.86
2023-01-20T04:02:49.576Z,88.88
2023-01-20T04:03:54.034Z,90.18
2023-01-20T04:04:57.927Z,90.88
2023-01-20T04:06:04.119Z,91.01
2023-01-20T04:07:09.245Z,90.09
2023-01-20T04:08:13.917Z,88.88
2023-01-20T04:09:22.991Z,88.26
2023-01-20T04:10:27.628Z,88.68
2023-01-20T04:11:30.415Z,88.62
2023-01-20T04:12:32.353Z,90.16
2023-01-20T04:13:36.860Z,91.21
2023-01-20T04:14:38.515Z,92.21
2023-01-20T04:15:45.591Z,92.98
2023-01-20T04:16:52.119Z,92.57
2023-01-20T04:17:56.787Z,92.39
2023-01-20T04:18:58.365Z,91.35
2023-01-20T04:20:03.537Z,90.39
2023-01-20T04:21:07.219Z,91.69
2023-01-20T04:22:16.873Z,92.13
2023-01-20T04:23:24.470Z,93.81
2023-01-20T04:24:31.914Z,93.53
2023-01-20T04:25:34.707Z,92.66
2023-01-20T04:26:37.410Z,93.73
2023-01-20T04:27:39.100Z,95.75
2023-01-20T04:28:41.765Z,97.46
2023-01-20T04:29:43.492Z,97.84
2023-01-20T04:30:46.152Z,96.84
2023-01-20T04:31:48.188Z,95.89
2023-01-20T04:32:51.125Z,96.18
2023-01-20T04:33:52.776Z,96.99
2023-01-20T04:34:55.461Z,97.25
2023-01-20T04:35:57.098Z,96.83
2023-01-20T04:37:03.805Z,96.89
2023-01-20T04:38:06.704Z,98.82
2023-01-20T04:39:09.645Z,98.76
2023-01-20T04:40:12.037Z,97.43
2023-01-20T04:41:14.684Z,96.93
2023-01-20T04:42:16.284Z,98.30
2023-01-20T04:43:19.202Z,98.16
2023-01-20T04:44:20.927Z,96.87
2023-01-20T04:45:23.758Z,96.52
2023-01-20T04:46:25.432Z,95.71
2023-01-20T04:47:30.864Z,93.69
2023-01-20T04:48:32.540Z,94.76
2023-01-20T04:49:35.392Z,95.26
2023-01-20T04:50:39.209Z,96.33
2023-01-20T04:51:41.907Z,97.33
2023-01-20T04:52:47.593Z,99.03
2023-01-20T04:53:50.184Z,98.60
2023-01-20T04:54:51.768Z,98.38
2023-01-20T04:55:54.372Z,98.53
2023-01-20T04:56:55.968Z,98.80
2023-01-20T04:57:58.559Z,98.11
2023-01-20T04:59:00.495Z,97.86
2023-01-20T05:00:03.214Z,98.03
2023-01-20T05:01:04.887Z,97.55
2023-01-20T05:02:07.814Z,98.40
2023-01-20T05:03:09.611Z,98.80
2023-01-20T05:04:12.408Z,98.62
2023-01-20T05:05:14.632Z,99.77
2023-01-20T05:06:18.889Z,100.00
2023-01-20T05:07:20.508Z,100.00
2023-01-20T05:08:24.440Z,100.00
2023-01-20T05:09:26.051Z,100.00
2023-01-20T05:10:30.388Z,100.00
2023-01-20T05:11:31.992Z,100.00
2023-01-20T05:12:34.555Z,99.69
2023-01-20T05:13:39.680Z,97.85
2023-01-20T05:14:42.297Z,96.42
2023-01-20T05:15:44.604Z,95.12
2023-01-20T05:16:47.787Z,93.43
2023-01-20T05:17:49.613Z,94.54
2023-01-20T05:18:52.358Z,93.93
2023-01-20T05:19:54.120Z,93.44
2023-01-20T05:20:56.735Z,94.83
2023-01-20T05:21:59.706Z,95.82
2023-01-20T05:23:02.448Z,95.98
2023-01-20T05:24:05.993Z,95.16
2023-01-20T05:25:09.696Z,96.39
2023-01-20T05:26:11.471Z,96.50
2023-01-20T05:27:16.555Z,96.21
2023-01-20T05:28:18.741Z,95.48
2023-01-20T05:29:21.361Z,95.43
2023-01-20T05:30:22.997Z,95.70
2023-01-20T05:31:26.023Z,96.83
2023-01-20T05:32:27.674Z,97.08
2023-01-20T05:33:30.344Z,97.17
2023-01-20T05:34:34.512Z,97.63
2023-01-20T05:35:38.619Z,98.50
2023-01-20T05:36:40.376Z,99.34
2023-01-20T05:37:42.970Z,99.57
2023-01-20T05:38:44.590Z,99.70
2023-01-20T05:39:48.595Z,100.00
2023-01-20T05:40:50.503Z,100.00
2023-01-20T05:41:53.144Z,100.00
2023-01-20T05:42:58.990Z,100.00
2023-01-20T05:44:01.647Z,99.10
2023-01-20T05:45:03.694Z,97.48
2023-01-20T05:46:07.010Z,96.70
2023-01-20T05:47:08.838Z,95.10
2023-01-20T05:48:11.425Z,94.14
2023-01-20T05:49:14.336Z,93.39
2023-01-20T05:50:17.490Z,93.08
2023-01-20T05:51:19.350Z,92.68
2023-01-20T05:52:22.267Z,92.12
2023-01-20T05:53:23.922Z,91.73
2023-01-20T05:54:27.151Z,91.83
2023-01-20T05:55:30.018Z,92.67
2023-01-20T05:56:32.564Z,92.10
2023-01-20T05:57:34.129Z,91.23
2023-01-20T05:58:36.604Z,90.23
2023-01-20T05:59:38.158Z,89.85
2023-01-20T06:00:40.703Z,89.86
2023-01-20T06:01:42.716Z,89.58
2023-01-20T06:02:45.560Z,90.71
2023-01-20T06:03:47.214Z,90.56
2023-01-20T06:04:50.030Z,91.00
2023-01-20T06:05:51.612Z,90.46
2023-01-20T06:06:54.271Z,90.92
2023-01-20T06:07:56.243Z,91.42
2023-01-20T06:08:58.805Z,91.66
2023-01-20T06:10:00.429Z,91.39
2023-01-20T06:11:04.364Z,91.55
2023-01-20T06:12:06.513Z,91.47
2023-01-20T06:13:09.360Z,91.30
2023-01-20T06:14:10.950Z,90.86
2023-01-20T06:15:13.680Z,91.12
2023-01-20T06:16:17.836Z,90.38
2023-01-20T06:17:21.794Z,89.64
2023-01-20T06:18:25.754Z,89.63
2023-01-20T06:19:27.285Z,89.24
2023-01-20T06:20:32.239Z,88.49
2023-01-20T06:21:34.782Z,89.07
2023-01-20T06:22:36.506Z,89.17
2023-01-20T06:23:39.144Z,90.50
2023-01-20T06:24:40.744Z,91.30
2023-01-20T06:25:46.888Z,91.82
2023-01-20T06:26:53.819Z,92.49
2023-01-20T06:27:56.396Z,93.19
2023-01-20T06:28:59.498Z,93.72
2023-01-20T06:30:02.095Z,95.92
2023-01-20T06:31:05.432Z,96.45
2023-01-20T06:32:08.123Z,95.82
2023-01-20T06:33:10.822Z,96.25
2023-01-20T06:34:13.556Z,97.87
2023-01-20T06:35:15.670Z,98.04
2023-01-20T06:36:18.611Z,97.50
2023-01-20T06:37:20.219Z,97.09
2023-01-20T06:38:23.069Z,97.54
2023-01-20T06:39:25.869Z,99.37
2023-01-20T06:40:27.442Z,99.67
2023-01-20T06:41:30.203Z,98.89
2023-01-20T06:42:33.976Z,97.96
2023-01-20T06:43:35.988Z,96.56
2023-01-20T06:44:38.540Z,94.94
2023-01-20T06:45:40.416Z,93.97
2023-01-20T06:46:43.138Z,93.55
2023-01-20T06:47:48.774Z,93.16
2023-01-20T06:48:51.318Z,92.49
2023-01-20T06:49:53.003Z,91.94
2023-01-20T06:51:00.907Z,91.84
2023-01-20T06:52:03.469Z,93.09
2023-01-20T06:53:05.107Z,92.86
2023-01-20T06:54:07.655Z,95.19
2023-01-20T06:55:09.671Z,96.48
2023-01-20T06:56:13.681Z,98.46
2023-01-20T06:57:15.386Z,99.34
2023-01-20T06:58:19.236Z,100.00
2023-01-20T06:59:21.772Z,100.00
2023-01-20T07:00:24.061Z,100.00
2023-01-20T07:01:29.758Z,99.23
2023-01-20T07:02:31.439Z,97.76
2023-01-20T07:03:34.073Z,96.64
2023-01-20T07:04:38.318Z,94.83
2023-01-20T07:05:40.915Z,94.57
2023-01-20T07:06:42.936Z,93.91
2023-01-20T07:07:46.137Z,93.61
2023-01-20T07:08:48.958Z,93.47
2023-01-20T07:09:55.184Z,93.56
2023-01-20T07:10:57.941Z,93.25
2023-01-20T07:12:00.540Z,94.43
2023-01-20T07:13:02.089Z,94.84
2023-01-20T07:14:07.182Z,96.27
2023-01-20T07:15:09.354Z,97.05
2023-01-20T07:16:15.539Z,96.32
2023-01-20T07:17:19.688Z,95.35
2023-01-20T07:18:21.281Z,95.10
2023-01-20T07:19:23.895Z,95.12
2023-01-20T07:20:26.574Z,95.93
2023-01-20T07:21:29.611Z,96.28
2023-01-20T07:22:31.201Z,96.88
2023-01-20T07:23:34.747Z,96.12
2023-01-20T07:24:36.706Z,95.98
2023-01-20T07:25:39.581Z,96.69
2023-01-20T07:26:42.127Z,96.17
2023-01-20T07:27:46.251Z,95.82
2023-01-20T07:28:48.616Z,95.17
2023-01-20T07:29:52.581Z,93.76
2023-01-20T07:30:54.982Z,92.54
2023-01-20T07:31:57.580Z,91.98
2023-01-20T07:32:59.180Z,91.76
2023-01-20T07:34:01.710Z,91.60
2023-01-20T07:35:03.530Z,91.25
2023-01-20T07:36:07.867Z,91.14
2023-01-20T07:37:10.394Z,90.79
2023-01-20T07:38:11.950Z,90.39
2023-01-20T07:39:15.489Z,90.14
2023-01-20T07:40:18.476Z,89.64
2023-01-20T07:41:20.669Z,90.20
2023-01-20T07:42:23.209Z,90.20
2023-01-20T07:43:24.800Z,89.71
2023-01-20T07:44:27.281Z,89.71
2023-01-20T07:45:30.145Z,90.16
2023-01-20T07:46:33.233Z,89.75
2023-01-20T07:47:34.924Z,90.62
2023-01-20T07:48:37.536Z,90.27
2023-01-20T07:49:40.045Z,90.36
2023-01-20T07:50:41.699Z,90.87
2023-01-20T07:51:44.239Z,91.94
2023-01-20T07:52:45.861Z,91.37
2023-01-20T07:53:51.019Z,91.25
2023-01-20T07:54:52.716Z,91.17
2023-01-20T07:55:57.455Z,91.63
2023-01-20T07:57:00.022Z,93.13
2023-01-20T07:58:02.320Z,93.93
2023-01-20T07:59:05.640Z,92.80
2023-01-20T08:00:12.097Z,92.50
2023-01-20T08:01:17.026Z,93.48
2023-01-20T08:02:19.698Z,94.56
2023-01-20T08:03:21.456Z,94.90
2023-01-20T08:04:24.011Z,94.30
2023-01-20T08:05:25.580Z,93.20
2023-01-20T08:06:28.272Z,94.27
2023-01-20T08:07:29.955Z,94.64
2023-01-20T08:08:33.078Z,94.50
2023-01-20T08:09:34.655Z,95.15
2023-01-20T08:10:37.230Z,96.82
2023-01-20T08:11:39.972Z,97.44
2023-01-20T08:12:42.540Z,98.03
2023-01-20T08:13:44.294Z,98.17
2023-01-20T08:14:46.801Z,97.54
2023-01-20T08:15:48.409Z,96.86
2023-01-20T08:16:52.507Z,95.95
2023-01-20T08:17:55.160Z,96.07
2023-01-20T08:18:57.683Z,96.65
2023-01-20T08:19:59.274Z,96.77
2023-01-20T08:21:06.382Z,95.42
2023-01-20T08:22:09.098Z,94.41
2023-01-20T08:23:10.711Z,94.46
2023-01-20T08:24:13.293Z,93.80
2023-01-20T08:25:15.519Z,92.40
2023-01-20T08:26:19.293Z,92.08
2023-01-20T08:27:22.103Z,91.32
2023-01-20T08:28:23.617Z,90.08
2023-01-20T08:29:26.544Z,88.47
2023-01-20T08:30:29.071Z,88.54
2023-01-20T08:31:30.791Z,88.00
2023-01-20T08:32:34.851Z,88.00
2023-01-20T08:33:37.066Z,87.67
2023-01-20T08:34:39.643Z,88.00
2023-01-20T08:35:42.183Z,87.91
2023-01-20T08:36:44.713Z,87.49
2023-01-20T08:37:46.701Z,86.97
2023-01-20T08:38:50.118Z,86.40
2023-01-20T08:39:51.958Z,85.60
2023-01-20T08:40:54.585Z,85.31
2023-01-20T08:41:57.247Z,85.06
2023-01-20T08:42:59.168Z,84.34
2023-01-20T08:44:04.391Z,84.11
2023-01-20T08:45:07.785Z,83.60
2023-01-20T08:46:12.396Z,84.33
2023-01-20T08:47:14.997Z,84.53
2023-01-20T08:48:19.957Z,84.08
2023-01-20T08:49:23.606Z,83.61
2023-01-20T08:50:25.520Z,84.20
2023-01-20T08:51:31.163Z,84.26
2023-01-20T08:52:34.061Z,84.23
2023-01-20T08:53:36.257Z,84.10
2023-01-20T08:54:38.892Z,83.23
2023-01-20T08:55:41.386Z,82.64
2023-01-20T08:56:45.569Z,82.60
2023-01-20T08:57:48.072Z,81.93
2023-01-20T08:58:50.287Z,82.21
2023-01-20T08:59:52.998Z,84.29
2023-01-20T09:00:55.556Z,85.21
2023-01-20T09:01:58.303Z,85.83
2023-01-20T09:02:59.967Z,86.61
2023-01-20T09:04:07.301Z,86.55
2023-01-20T09:05:10.893Z,85.78
2023-01-20T09:06:14.997Z,85.19
2023-01-20T09:07:18.668Z,85.12
2023-01-20T09:08:20.747Z,85.04
2023-01-20T09:09:24.060Z,84.48
2023-01-20T09:10:25.719Z,85.26
2023-01-20T09:11:28.345Z,85.09
2023-01-20T09:12:31.052Z,84.50
2023-01-20T09:13:32.796Z,84.67
2023-01-20T09:14:35.376Z,84.28
2023-01-20T09:15:37.105Z,84.17
2023-01-20T09:16:40.039Z,84.32
2023-01-20T09:17:42.678Z,84.80
2023-01-20T09:18:44.608Z,84.52
2023-01-20T09:19:48.638Z,84.50
2023-01-20T09:20:53.742Z,84.10
2023-01-20T09:21:57.484Z,83.90
2023-01-20T09:23:02.794Z,84.37
2023-01-20T09:24:06.290Z,83.88
2023-01-20T09:25:11.576Z,84.23
2023-01-20T09:26:29.617Z,83.66
2023-01-20T09:27:37.206Z,82.92
2023-01-20T09:28:39.764Z,83.55
2023-01-20T09:29:42.316Z,83.27
2023-01-20T09:30:45.135Z,83.28
2023-01-20T09:31:58.140Z,83.26
2023-01-20T09:33:01.016Z,82.79
2023-01-20T09:34:03.815Z,81.87
2023-01-20T09:35:11.472Z,82.07
2023-01-20T09:36:14.318Z,82.58
2023-01-20T09:37:36.319Z,82.87
2023-01-20T09:38:58.237Z,83.50
2023-01-20T09:40:18.651Z,83.57
2023-01-20T09:41:54.742Z,84.11
2023-01-20T09:43:26.172Z,85.19
2023-01-20T09:44:44.311Z,84.94
2023-01-20T09:45:55.817Z,84.87
2023-01-20T09:47:21.068Z,83.78
2023-01-20T09:48:53.705Z,83.71
2023-01-20T09:50:49.317Z,86.20
2023-01-20T09:52:19.262Z,87.27
2023-01-20T09:53:35.091Z,88.34
2023-01-20T09:54:44.168Z,89.00
2023-01-20T09:55:50.928Z,89.28
2023-01-20T09:56:57.581Z,89.13
2023-01-20T09:58:11.408Z,88.33
2023-01-20T09:59:20.753Z,87.12
2023-01-20T10:00:25.051Z,86.51
2023-01-20T10:01:32.756Z,85.89
2023-01-20T10:02:37.585Z,86.32
2023-01-20T10:03:48.757Z,87.35
2023-01-20T10:04:54.651Z,87.06
2023-01-20T10:06:03.920Z,85.59
2023-01-20T10:07:13.160Z,85.94
2023-01-20T10:08:20.253Z,87.73
2023-01-20T10:09:33.463Z,87.67
2023-01-20T10:10:42.065Z,87.25
2023-01-20T10:11:48.098Z,86.57
2023-01-20T10:12:55.207Z,86.53
2023-01-20T10:14:09.629Z,84.66
2023-01-20T10:15:17.874Z,84.69
2023-01-20T10:16:28.545Z,82.61
2023-01-20T10:17:39.171Z,81.61
2023-01-20T10:18:47.489Z,80.37
2023-01-20T10:19:56.238Z,80.92
2023-01-20T10:21:02.987Z,80.81
2023-01-20T10:22:11.821Z,80.34
2023-01-20T10:23:21.435Z,77.29
2023-01-20T10:24:28.877Z,75.57
2023-01-20T10:25:39.229Z,73.91
2023-01-20T10:26:47.844Z,72.41
2023-01-20T10:27:55.797Z,72.55
2023-01-20T10:29:01.919Z,72.35
2023-01-20T10:30:10.419Z,71.35
2023-01-20T10:31:15.660Z,70.00
2023-01-20T10:32:29.550Z,69.90
2023-01-20T10:33:36.059Z,68.77
2023-01-20T10:34:44.529Z,70.14
2023-01-20T10:35:51.127Z,70.26
2023-01-20T10:37:03.896Z,70.24
2023-01-20T10:38:19.245Z,73.84
2023-01-20T10:39:31.015Z,77.31
2023-01-20T10:40:39.655Z,76.82
2023-01-20T10:41:47.401Z,76.09
2023-01-20T10:42:58.013Z,76.08
2023-01-20T10:44:01.877Z,75.29
2023-01-20T10:45:09.489Z,73.66
2023-01-20T10:46:23.984Z,70.73
2023-01-20T10:47:43.545Z,70.31
2023-01-20T10:49:06.640Z,69.64
2023-01-20T10:50:24.217Z,67.62
2023-01-20T10:51:40.767Z,66.94
2023-01-20T10:53:04.181Z,66.53
2023-01-20T10:54:23.732Z,66.36
2023-01-20T10:55:41.472Z,66.97
2023-01-20T10:56:53.755Z,66.65
2023-01-20T10:58:04.450Z,65.89
2023-01-20T10:59:11.258Z,65.28
2023-01-20T11:00:25.089Z,64.53
2023-01-20T11:01:30.203Z,65.19
2023-01-20T11:02:35.832Z,66.42
2023-01-20T11:03:42.922Z,66.36
2023-01-20T11:04:47.785Z,66.80
2023-01-20T11:05:53.138Z,65.39
2023-01-20T11:07:03.768Z,66.83
2023-01-20T11:08:16.495Z,70.94
2023-01-20T11:09:28.134Z,71.29
2023-01-20T11:10:36.407Z,70.91
2023-01-20T11:11:43.247Z,70.11
2023-01-20T11:12:54.213Z,70.14
2023-01-20T11:13:59.641Z,68.67
2023-01-20T11:15:03.577Z,70.35
2023-01-20T11:16:15.101Z,71.65
2023-01-20T11:17:22.357Z,71.80
2023-01-20T11:18:28.320Z,72.40
2023-01-20T11:19:46.377Z,73.96
2023-01-20T11:20:50.120Z,74.57
2023-01-20T11:21:53.812Z,73.31
2023-01-20T11:22:56.914Z,72.98
2023-01-20T11:24:01.792Z,72.43
2023-01-20T11:25:06.520Z,72.39
2023-01-20T11:26:19.668Z,71.56
2023-01-20T11:27:25.651Z,73.84
2023-01-20T11:28:32.936Z,75.32
2023-01-20T11:29:43.461Z,73.75
2023-01-20T11:30:51.975Z,72.61
2023-01-20T11:31:56.796Z,72.03
2023-01-20T11:33:11.125Z,74.17
2023-01-20T11:34:25.406Z,74.25
2023-01-20T11:35:28.076Z,73.26
2023-01-20T11:36:29.893Z,71.51
2023-01-20T11:37:40.461Z,70.99
2023-01-20T11:38:44.823Z,68.55
2023-01-20T11:40:01.115Z,67.03
2023-01-20T11:41:04.043Z,65.52
2023-01-20T11:42:17.175Z,63.38
2023-01-20T11:43:29.637Z,60.89
2023-01-20T11:44:31.357Z,62.14
2023-01-20T11:45:36.132Z,65.04
2023-01-20T11:46:38.420Z,64.18
2023-01-20T11:47:41.276Z,65.40
2023-01-20T11:48:46.085Z,64.52
2023-01-20T11:50:20.910Z,65.16
2023-01-20T11:51:26.447Z,70.57
2023-01-20T11:52:28.202Z,70.85
2023-01-20T11:53:32.433Z,72.28
2023-01-20T11:54:37.192Z,73.75
2023-01-20T11:55:47.264Z,75.38
2023-01-20T11:56:54.369Z,75.94
2023-01-20T11:57:59.587Z,73.52
2023-01-20T11:59:05.597Z,73.48
2023-01-20T12:00:31.530Z,72.25
2023-01-20T12:01:52.881Z,70.92
2023-01-20T12:03:00.617Z,70.23
2023-01-20T12:04:24.382Z,69.90
2023-01-20T12:05:36.090Z,69.19
2023-01-20T12:06:48.141Z,68.54
2023-01-20T12:07:53.385Z,67.60
2023-01-20T12:09:01.542Z,68.73
2023-01-20T12:10:13.093Z,69.51
2023-01-20T12:11:19.355Z,70.26
2023-01-20T12:12:30.846Z,72.17
2023-01-20T12:13:59.691Z,73.12
2023-01-20T12:15:06.028Z,72.11
2023-01-20T12:16:12.327Z,72.52
2023-01-20T12:17:27.147Z,73.56
2023-01-20T12:18:35.727Z,73.75
2023-01-20T12:19:51.171Z,73.21
2023-01-20T12:21:00.258Z,72.65
2023-01-20T12:22:12.013Z,73.48
2023-01-20T12:23:25.055Z,71.99
2023-01-20T12:24:52.519Z,73.28
2023-01-20T12:26:00.620Z,76.16
2023-01-20T12:27:03.758Z,77.12
2023-01-20T12:28:14.240Z,78.19
2023-01-20T12:29:22.516Z,77.96
2023-01-20T12:30:44.179Z,75.31
2023-01-20T12:31:49.405Z,73.20
2023-01-20T12:32:51.219Z,72.15
2023-01-20T12:34:00.581Z,70.79
2023-01-20T12:35:11.401Z,69.21
2023-01-20T12:36:37.632Z,67.48
2023-01-20T12:37:47.796Z,66.99
2023-01-20T12:39:16.863Z,66.34
2023-01-20T12:40:33.754Z,66.97
2023-01-20T12:41:54.867Z,66.67
2023-01-20T12:43:32.117Z,67.63
2023-01-20T12:44:42.521Z,67.34
2023-01-20T12:46:10.458Z,65.97
2023-01-20T12:47:25.748Z,65.38
2023-01-20T12:48:44.895Z,65.50
2023-01-20T12:50:04.346Z,64.80
2023-01-20T12:51:20.598Z,64.68
2023-01-20T12:52:46.117Z,66.38
2023-01-20T12:54:04.453Z,66.01
2023-01-20T12:55:22.904Z,64.21
2023-01-20T12:56:37.215Z,63.98
2023-01-20T12:57:50.290Z,62.12
2023-01-20T12:59:04.405Z,60.63
2023-01-20T13:00:24.301Z,59.66
2023-01-20T13:01:43.750Z,59.07
2023-01-20T13:03:22.453Z,56.80
2023-01-20T13:04:53.074Z,55.22
2023-01-20T13:06:28.309Z,55.04
2023-01-20T13:07:49.824Z,55.49
2023-01-20T13:08:58.391Z,55.03
2023-01-20T13:10:16.955Z,53.41
2023-01-20T13:11:29.891Z,53.95
2023-01-20T13:12:46.941Z,52.86
2023-01-20T13:14:07.608Z,50.31
2023-01-20T13:15:20.351Z,51.09
2023-01-20T13:16:33.933Z,50.55
2023-01-20T13:17:43.362Z,50.65
2023-01-20T13:19:03.540Z,50.20
2023-01-20T13:20:17.572Z,49.54
2023-01-20T13:21:21.361Z,50.37
2023-01-20T13:22:25.039Z,50.55
2023-01-20T13:23:30.471Z,51.41
2023-01-20T13:24:32.382Z,52.09
2023-01-20T13:25:35.949Z,51.64
2023-01-20T13:26:39.067Z,51.40
2023-01-20T13:27:44.851Z,50.64
2023-01-20T13:28:54.040Z,47.98
2023-01-20T13:29:59.148Z,48.09
2023-01-20T13:31:23.006Z,47.78
2023-01-20T13:32:38.299Z,48.28
2023-01-20T13:33:42.935Z,50.53
2023-01-20T13:34:44.548Z,48.46
2023-01-20T13:35:51.384Z,48.36
2023-01-20T13:37:24.436Z,45.88
2023-01-20T13:38:31.007Z,47.68
2023-01-20T13:39:40.975Z,47.15
2023-01-20T13:40:55.471Z,49.07
2023-01-20T13:41:57.185Z,49.82
2023-01-20T13:42:59.743Z,49.65
2023-01-20T13:44:22.452Z,50.33
2023-01-20T13:45:27.448Z,51.28
2023-01-20T13:46:47.445Z,50.93
2023-01-20T13:47:54.333Z,52.59
2023-01-20T13:49:25.696Z,51.99
2023-01-20T13:50:31.837Z,53.72
2023-01-20T13:51:45.054Z,54.21
2023-01-20T13:53:13.326Z,55.75
2023-01-20T13:54:44.036Z,56.87
2023-01-20T13:55:58.037Z,57.49
2023-01-20T13:57:33.879Z,57.04
2023-01-20T13:58:36.404Z,57.65
2023-01-20T13:59:37.961Z,57.83
2023-01-20T14:00:40.706Z,58.45
2023-01-20T14:01:43.400Z,57.79
2023-01-20T14:02:46.821Z,59.18
2023-01-20T14:04:04.550Z,58.55
2023-01-20T14:05:20.840Z,58.53
2023-01-20T14:06:26.088Z,58.78
2023-01-20T14:07:30.558Z,58.47
2023-01-20T14:08:42.525Z,58.52
2023-01-20T14:09:52.187Z,59.18
2023-01-20T14:11:05.939Z,59.96
2023-01-20T14:12:08.618Z,59.90
2023-01-20T14:13:11.472Z,59.90
2023-01-20T14:14:18.594Z,60.38
2023-01-20T14:15:26.786Z,60.81
2023-01-20T14:16:31.312Z,60.78